Time;durP1;ratioP1;P1;durP2;ratioP2;P2;SDS_P1;SDS_P2;PMS_P1;PMS_P2;Temp;Humidity;BMP_temperature;BMP_pressure;BME280_temperature;BME280_humidity;BME280_pressure;Samples;Min_cycle;Max_cycle;Signal;HPM_P1;HPM_P2
2022/01/28 00:04:11;;;;;;;12.20;7.70;;;;;;;;;;8222769;28;20039;-62
2022/01/28 00:08:11;;;;;;;11.85;7.03;;;;;;;;;;8223333;28;20034;-62
2022/01/28 00:12:12;;;;;;;9.23;6.70;;;;;;;;;;8220710;28;20080;-61
2022/01/28 00:21:08;;;;;;;8.77;6.57;;;;;;;;;;8222432;28;20106;-61
2022/01/28 00:38:09;;;;;;;9.98;6.45;;;;;;;;;;8222619;28;20208;-61
2022/01/28 00:42:09;;;;;;;11.95;7.35;;;;;;;;;;8222198;28;20660;-62
2022/01/28 00:46:09;;;;;;;12.57;7.33;;;;;;;;;;8221112;28;20038;-62
2022/01/28 00:50:09;;;;;;;9.02;6.47;;;;;;;;;;8221409;28;20383;-62
2022/01/28 00:54:10;;;;;;;13.80;6.93;;;;;;;;;;8221673;28;20030;-61
2022/01/28 00:58:10;;;;;;;10.48;6.55;;;;;;;;;;8220957;28;20169;-61
2022/01/28 01:02:10;;;;;;;14.25;7.40;;;;;;;;;;8220772;28;20465;-62
2022/01/28 01:06:10;;;;;;;14.13;7.00;;;;;;;;;;8226130;28;20022;-62
2022/01/28 01:10:10;;;;;;;8.32;6.05;;;;;;;;;;8220015;28;20026;-61
2022/01/28 01:14:12;;;;;;;13.25;6.28;;;;;;;;;;8220544;28;20134;-61
2022/01/28 01:18:21;;;;;;;9.57;5.80;;;;;;;;;;8219698;28;20034;-62
2022/01/28 01:22:22;;;;;;;9.10;6.00;;;;;;;;;;8218062;28;20113;-62
2022/01/28 01:26:32;;;;;;;7.70;5.30;;;;;;;;;;8215610;28;20133;-62
2022/01/28 01:30:39;;;;;;;8.57;5.28;;;;;;;;;;8218170;28;20133;-62
2022/01/28 01:34:39;;;;;;;8.35;5.00;;;;;;;;;;8220948;28;20029;-61
2022/01/28 01:38:41;;;;;;;7.68;4.45;;;;;;;;;;8220463;28;20665;-61
2022/01/28 01:42:50;;;;;;;7.97;4.30;;;;;;;;;;8218632;28;20034;-62
2022/01/28 01:52:00;;;;;;;6.13;4.50;;;;;;;;;;8219395;28;20046;-62
2022/01/28 01:55:46;;;;;;;6.38;3.90;;;;;;;;;;8220749;28;20044;-62
2022/01/28 01:59:48;;;;;;;7.65;4.50;;;;;;;;;;8219059;28;20042;-62
2022/01/28 02:03:48;;;;;;;7.78;4.53;;;;;;;;;;8218741;28;20482;-61
2022/01/28 02:07:48;;;;;;;7.22;3.72;;;;;;;;;;8219871;28;20022;-62
2022/01/28 02:11:48;;;;;;;5.47;4.07;;;;;;;;;;8218938;28;20060;-61
2022/01/28 02:15:48;;;;;;;6.45;4.25;;;;;;;;;;8218843;28;20034;-62
2022/01/28 02:19:49;;;;;;;6.40;4.57;;;;;;;;;;8218277;28;20018;-61
2022/01/28 02:23:54;;;;;;;8.82;4.28;;;;;;;;;;8218506;28;20140;-61
2022/01/28 02:27:59;;;;;;;6.45;4.57;;;;;;;;;;8218635;28;20121;-61
2022/01/28 02:31:59;;;;;;;;;;;;;;;;;;8218504;28;20038;-61
2022/01/28 02:36:04;;;;;;;6.03;4.17;;;;;;;;;;8218193;28;20020;-62
2022/01/28 02:40:05;;;;;;;7.03;4.63;;;;;;;;;;8219058;28;20270;-61
2022/01/28 02:48:19;;;;;;;6.43;4.88;;;;;;;;;;8217606;28;20030;-61
2022/01/28 02:52:28;;;;;;;9.82;5.13;;;;;;;;;;8218325;28;20245;-61
2022/01/28 02:56:40;;;;;;;8.80;5.88;;;;;;;;;;8218337;28;20149;-62
2022/01/28 03:00:41;;;;;;;12.45;5.80;;;;;;;;;;8218032;28;20066;-62
2022/01/28 03:08:58;;;;;;;9.88;5.13;;;;;;;;;;8218242;28;20031;-61
2022/01/28 03:17:12;;;;;;;10.15;5.95;;;;;;;;;;8217050;28;21138;-61
2022/01/28 03:21:23;;;;;;;12.65;5.40;;;;;;;;;;8217831;28;20034;-61
2022/01/28 03:25:24;;;;;;;9.00;5.78;;;;;;;;;;8218260;28;20030;-61
2022/01/28 03:29:24;;;;;;;11.25;5.45;;;;;;;;;;8216170;28;20035;-61
2022/01/28 03:33:24;;;;;;;14.00;6.32;;;;;;;;;;8217993;28;20356;-61
2022/01/28 03:37:24;;;;;;;12.35;5.53;;;;;;;;;;8218064;28;20054;-61
2022/01/28 03:41:25;;;;;;;9.63;5.03;;;;;;;;;;8215749;28;20037;-61
2022/01/28 03:45:25;;;;;;;7.65;4.20;;;;;;;;;;8218686;28;20034;-61
2022/01/28 03:49:25;;;;;;;11.48;4.32;;;;;;;;;;8218188;28;20029;-62
2022/01/28 03:53:25;;;;;;;8.93;4.78;;;;;;;;;;8217024;28;20022;-62
2022/01/28 03:57:25;;;;;;;5.45;3.92;;;;;;;;;;8222658;28;20339;-61
2022/01/28 04:01:34;;;;;;;8.23;4.18;;;;;;;;;;8222847;28;20583;-62
2022/01/28 04:14:36;;;;;;;6.53;3.30;;;;;;;;;;8221227;28;20863;-61
2022/01/28 04:18:35;;;;;;;5.20;3.13;;;;;;;;;;8223220;28;20034;-61
2022/01/28 04:22:35;;;;;;;9.88;3.30;;;;;;;;;;8222075;28;20089;-61
2022/01/28 04:26:36;;;;;;;4.65;2.70;;;;;;;;;;8223260;28;20026;-61
2022/01/28 04:30:36;;;;;;;8.90;3.03;;;;;;;;;;8221625;28;20041;-61
2022/01/28 04:34:36;;;;;;;11.30;3.30;;;;;;;;;;8222755;28;20356;-63
2022/01/28 04:47:13;;;;;;;7.55;2.92;;;;;;;;;;8221940;28;20131;-61
2022/01/28 04:51:46;;;;;;;10.55;2.70;;;;;;;;;;8221732;28;20037;-61
2022/01/28 04:56:07;;;;;;;7.28;2.42;;;;;;;;;;8222152;28;20124;-62
2022/01/28 05:00:21;;;;;;;7.78;2.63;;;;;;;;;;8217532;28;20185;-62
2022/01/28 05:04:45;;;;;;;7.65;2.65;;;;;;;;;;8222617;28;20034;-61
2022/01/28 05:30:19;;;;;;;5.20;2.60;;;;;;;;;;8217485;28;20161;-62
2022/01/28 05:34:23;;;;;;;5.05;2.45;;;;;;;;;;8221209;28;20062;-61
2022/01/28 05:38:24;;;;;;;5.20;2.28;;;;;;;;;;8220643;28;20050;-61
2022/01/28 05:42:24;;;;;;;9.88;3.28;;;;;;;;;;8219889;28;20490;-61
2022/01/28 05:46:28;;;;;;;4.93;2.53;;;;;;;;;;8219014;28;20735;-61
2022/01/28 05:50:28;;;;;;;8.52;2.92;;;;;;;;;;8218957;28;20037;-61
2022/01/28 05:54:28;;;;;;;9.33;2.80;;;;;;;;;;8220371;28;20054;-61
2022/01/28 05:58:28;;;;;;;5.50;2.40;;;;;;;;;;8221165;28;20301;-61
2022/01/28 06:02:29;;;;;;;6.45;2.40;;;;;;;;;;8218996;28;20265;-62
2022/01/28 06:06:30;;;;;;;8.15;2.35;;;;;;;;;;8220064;28;20277;-61
2022/01/28 06:10:30;;;;;;;4.53;2.10;;;;;;;;;;8218420;28;20993;-62
2022/01/28 06:14:30;;;;;;;10.33;2.50;;;;;;;;;;8219626;28;20069;-62
2022/01/28 06:18:30;;;;;;;5.88;2.05;;;;;;;;;;8218559;28;20352;-61
2022/01/28 06:22:31;;;;;;;8.73;2.15;;;;;;;;;;8219529;28;20761;-62
2022/01/28 06:26:31;;;;;;;9.63;2.85;;;;;;;;;;8219217;28;20034;-62
2022/01/28 06:30:31;;;;;;;7.03;2.67;;;;;;;;;;8222096;28;20113;-61
2022/01/28 06:34:33;;;;;;;8.45;2.30;;;;;;;;;;8219383;28;20026;-61
2022/01/28 06:38:33;;;;;;;4.28;1.90;;;;;;;;;;8217368;28;20289;-61
2022/01/28 06:42:34;;;;;;;4.18;1.83;;;;;;;;;;8217219;28;20121;-62
2022/01/28 06:46:34;;;;;;;3.13;1.95;;;;;;;;;;8212461;28;20440;-61
2022/01/28 06:50:34;;;;;;;8.80;2.42;;;;;;;;;;8209919;28;20030;-61
2022/01/28 06:54:34;;;;;;;6.75;1.98;;;;;;;;;;8210880;28;20552;-61
2022/01/28 06:58:34;;;;;;;10.32;2.30;;;;;;;;;;8210758;28;20060;-61
2022/01/28 07:02:35;;;;;;;3.80;1.58;;;;;;;;;;8209863;28;20037;-61
2022/01/28 07:06:35;;;;;;;3.30;1.85;;;;;;;;;;8210689;28;20109;-61
2022/01/28 07:10:36;;;;;;;5.80;2.28;;;;;;;;;;8210242;28;20040;-61
2022/01/28 07:14:36;;;;;;;7.55;1.73;;;;;;;;;;8211790;28;20026;-62
2022/01/28 07:18:36;;;;;;;5.78;1.65;;;;;;;;;;8210848;28;20549;-61
2022/01/28 07:22:36;;;;;;;9.63;3.25;;;;;;;;;;8209083;28;20031;-61
2022/01/28 07:26:36;;;;;;;8.23;2.42;;;;;;;;;;8210477;28;20041;-61
2022/01/28 07:30:37;;;;;;;9.60;2.03;;;;;;;;;;8211514;28;20511;-62
2022/01/28 07:34:37;;;;;;;6.23;2.00;;;;;;;;;;8216155;28;20324;-61
2022/01/28 07:38:37;;;;;;;5.28;1.80;;;;;;;;;;8216245;28;20280;-61
2022/01/28 07:42:38;;;;;;;11.02;2.42;;;;;;;;;;8215623;28;20030;-62
2022/01/28 07:46:38;;;;;;;9.80;2.40;;;;;;;;;;8217354;28;20038;-62
2022/01/28 07:50:38;;;;;;;12.57;2.20;;;;;;;;;;8220924;28;20033;-62
2022/01/28 07:54:46;;;;;;;15.13;2.58;;;;;;;;;;8216146;28;20789;-62
2022/01/28 07:58:46;;;;;;;9.52;2.33;;;;;;;;;;8214485;28;20347;-62
2022/01/28 08:02:46;;;;;;;11.25;2.50;;;;;;;;;;8217312;28;20472;-62
2022/01/28 08:06:46;;;;;;;12.23;3.00;;;;;;;;;;8216871;28;20026;-62
2022/01/28 08:10:47;;;;;;;10.52;3.00;;;;;;;;;;8217381;28;20487;-62
2022/01/28 08:14:47;;;;;;;6.15;2.20;;;;;;;;;;8216199;28;20108;-62
2022/01/28 08:18:47;;;;;;;6.57;2.38;;;;;;;;;;8215916;28;20384;-62
2022/01/28 08:22:49;;;;;;;13.25;2.00;;;;;;;;;;8215819;28;20524;-62
2022/01/28 08:26:49;;;;;;;17.30;7.03;;;;;;;;;;8217660;28;20289;-62
2022/01/28 08:30:49;;;;;;;7.60;2.30;;;;;;;;;;8215944;28;20116;-62
2022/01/28 08:34:49;;;;;;;10.50;2.50;;;;;;;;;;8216418;28;20037;-62
2022/01/28 08:38:53;;;;;;;7.50;1.92;;;;;;;;;;8214005;28;20510;-62
2022/01/28 08:42:54;;;;;;;13.82;3.05;;;;;;;;;;8216793;28;20022;-62
2022/01/28 08:46:55;;;;;;;8.60;1.65;;;;;;;;;;8216556;28;20550;-62
2022/01/28 08:50:55;;;;;;;10.32;2.30;;;;;;;;;;8214147;28;20035;-62
2022/01/28 08:54:55;;;;;;;11.75;2.20;;;;;;;;;;8215545;28;20640;-62
2022/01/28 08:58:55;;;;;;;9.02;2.30;;;;;;;;;;8214503;28;20018;-62
2022/01/28 09:02:55;;;;;;;8.25;2.20;;;;;;;;;;8216138;28;20702;-62
2022/01/28 09:06:56;;;;;;;8.15;2.03;;;;;;;;;;8214230;28;20370;-63
2022/01/28 09:11:18;;;;;;;5.28;1.83;;;;;;;;;;8214283;28;20034;-63
2022/01/28 09:15:16;;;;;;;7.45;2.22;;;;;;;;;;8214006;28;20556;-62
2022/01/28 09:19:16;;;;;;;7.10;1.67;;;;;;;;;;8214544;28;20219;-62
2022/01/28 09:23:17;;;;;;;7.57;1.50;;;;;;;;;;8214466;28;20062;-62
2022/01/28 09:27:17;;;;;;;9.43;1.50;;;;;;;;;;8214686;28;20076;-62
2022/01/28 09:31:18;;;;;;;6.63;1.58;;;;;;;;;;8213078;28;20305;-63
2022/01/28 09:35:18;;;;;;;6.97;1.85;;;;;;;;;;8213272;28;20042;-62
2022/01/28 09:39:19;;;;;;;9.90;1.92;;;;;;;;;;8212333;28;20088;-62
2022/01/28 09:43:20;;;;;;;11.63;1.80;;;;;;;;;;8213332;28;20030;-62
2022/01/28 09:47:20;;;;;;;6.63;1.58;;;;;;;;;;8213145;28;20344;-63
2022/01/28 09:51:21;;;;;;;8.95;2.50;;;;;;;;;;8212829;28;20471;-62
2022/01/28 09:55:22;;;;;;;10.23;2.22;;;;;;;;;;8211751;28;20042;-62
2022/01/28 09:59:23;;;;;;;7.25;1.80;;;;;;;;;;8213460;28;20038;-62
2022/01/28 10:03:24;;;;;;;8.65;2.10;;;;;;;;;;8213758;28;20170;-62
2022/01/28 10:07:24;;;;;;;5.63;1.52;;;;;;;;;;8211433;28;20121;-62
2022/01/28 10:11:25;;;;;;;6.38;2.17;;;;;;;;;;8214556;28;20089;-60
2022/01/28 10:15:30;;;;;;;6.07;2.10;;;;;;;;;;8210239;28;20065;-60
2022/01/28 10:19:37;;;;;;;11.30;2.35;;;;;;;;;;8211385;28;20117;-61
2022/01/28 10:23:37;;;;;;;8.07;1.85;;;;;;;;;;8212885;28;20440;-60
2022/01/28 10:27:38;;;;;;;8.15;2.13;;;;;;;;;;8210868;28;20673;-61
2022/01/28 10:31:45;;;;;;;5.82;2.10;;;;;;;;;;8211384;28;20065;-60
2022/01/28 10:35:49;;;;;;;11.38;1.90;;;;;;;;;;8213151;28;20044;-61
2022/01/28 10:40:00;;;;;;;7.53;2.33;;;;;;;;;;8211359;28;20030;-61
2022/01/28 10:44:00;;;;;;;8.90;2.35;;;;;;;;;;8212226;28;20644;-61
2022/01/28 10:48:02;;;;;;;8.88;2.67;;;;;;;;;;8210323;28;20043;-61
2022/01/28 10:52:11;;;;;;;7.03;2.15;;;;;;;;;;8209860;28;20406;-61
2022/01/28 10:56:12;;;;;;;8.57;2.42;;;;;;;;;;8207876;28;20608;-61
2022/01/28 11:00:13;;;;;;;8.80;2.20;;;;;;;;;;8209676;28;20026;-61
2022/01/28 11:04:14;;;;;;;23.98;10.13;;;;;;;;;;8212027;28;20026;-63
2022/01/28 11:08:14;;;;;;;11.57;3.80;;;;;;;;;;8217954;28;20258;-63
2022/01/28 11:12:16;;;;;;;9.57;2.17;;;;;;;;;;8217257;28;20476;-63
2022/01/28 11:16:16;;;;;;;7.93;2.60;;;;;;;;;;8218049;28;20070;-63
2022/01/28 11:20:20;;;;;;;7.95;2.35;;;;;;;;;;8218306;28;20542;-63
2022/01/28 11:24:21;;;;;;;13.02;3.72;;;;;;;;;;8216115;28;20030;-63
2022/01/28 11:28:36;;;;;;;8.05;2.60;;;;;;;;;;8217821;28;20042;-61
2022/01/28 11:32:51;;;;;;;6.63;2.20;;;;;;;;;;8216348;28;20034;-61
2022/01/28 11:36:51;;;;;;;;;;;;;;;;;;8216642;28;20037;-62
2022/01/28 11:41:11;;;;;;;5.68;1.80;;;;;;;;;;8217752;28;19910;-61
2022/01/28 11:45:11;;;;;;;5.40;1.90;;;;;;;;;;8216615;28;20553;-61
2022/01/28 11:49:11;;;;;;;7.50;1.80;;;;;;;;;;8218661;28;20761;-61
2022/01/28 11:53:22;;;;;;;9.52;1.95;;;;;;;;;;8217204;28;20240;-61
2022/01/28 11:57:25;;;;;;;9.13;1.75;;;;;;;;;;8216358;28;20040;-61
2022/01/28 12:01:45;;;;;;;11.37;1.90;;;;;;;;;;8215780;28;20049;-61
2022/01/28 12:05:45;;;;;;;7.60;1.60;;;;;;;;;;8217763;28;20032;-61
2022/01/28 12:09:47;;;;;;;11.70;2.33;;;;;;;;;;8214535;28;20042;-61
2022/01/28 12:14:00;;;;;;;10.80;2.20;;;;;;;;;;8217856;28;20042;-61
2022/01/28 12:18:05;;;;;;;5.07;1.52;;;;;;;;;;8212184;28;20030;-61
2022/01/28 12:22:08;;;;;;;5.97;1.70;;;;;;;;;;8213440;28;20022;-62
2022/01/28 12:26:11;;;;;;;8.88;1.40;;;;;;;;;;8216980;28;20200;-61
2022/01/28 12:30:14;;;;;;;7.80;1.52;;;;;;;;;;8213494;28;20336;-61
2022/01/28 12:34:17;;;;;;;5.15;1.52;;;;;;;;;;8214784;28;20271;-61
2022/01/28 12:38:22;;;;;;;7.28;1.40;;;;;;;;;;8214865;28;20518;-61
2022/01/28 12:42:26;;;;;;;;;;;;;;;;;;8216528;28;20621;-61
2022/01/28 12:46:27;;;;;;;9.98;1.85;;;;;;;;;;8215954;28;20032;-61
2022/01/28 12:50:32;;;;;;;5.25;1.38;;;;;;;;;;8214552;28;20041;-61
2022/01/28 12:54:34;;;;;;;10.10;1.27;;;;;;;;;;8216426;28;20038;-61
2022/01/28 12:58:40;;;;;;;5.43;1.30;;;;;;;;;;8215008;28;20335;-61
2022/01/28 13:02:41;;;;;;;8.60;1.60;;;;;;;;;;8214418;28;20132;-61
2022/01/28 13:10:48;;;;;;;10.05;1.80;;;;;;;;;;8215802;28;20026;-61
2022/01/28 13:14:49;;;;;;;6.38;1.65;;;;;;;;;;8214196;28;20030;-61
2022/01/28 13:18:56;;;;;;;6.80;1.65;;;;;;;;;;8214040;28;20038;-61
2022/01/28 13:22:56;;;;;;;6.88;1.35;;;;;;;;;;8214677;28;20030;-61
2022/01/28 13:27:01;;;;;;;3.78;1.10;;;;;;;;;;8215173;28;20684;-61
2022/01/28 13:31:01;;;;;;;7.07;1.40;;;;;;;;;;8213064;28;20133;-61
2022/01/28 13:35:02;;;;;;;14.30;1.90;;;;;;;;;;8213118;28;20069;-61
2022/01/28 13:39:13;;;;;;;5.85;1.48;;;;;;;;;;8211568;28;20088;-61
2022/01/28 13:43:14;;;;;;;5.32;1.23;;;;;;;;;;8211754;28;20121;-61
2022/01/28 13:47:16;;;;;;;4.10;1.40;;;;;;;;;;8213312;28;20407;-61
2022/01/28 13:51:20;;;;;;;5.18;1.40;;;;;;;;;;8212754;28;20140;-61
2022/01/28 13:55:33;;;;;;;7.37;2.00;;;;;;;;;;8212799;28;20053;-62
2022/01/28 13:59:34;;;;;;;4.63;1.40;;;;;;;;;;8212816;28;20693;-61
2022/01/28 14:03:45;;;;;;;4.30;1.23;;;;;;;;;;8214171;28;20038;-62
2022/01/28 14:07:52;;;;;;;5.90;1.60;;;;;;;;;;8212555;28;20038;-61
2022/01/28 14:12:00;;;;;;;6.75;1.70;;;;;;;;;;8214148;28;20434;-61
2022/01/28 14:16:12;;;;;;;8.48;1.58;;;;;;;;;;8213716;28;20475;-61
2022/01/28 14:20:12;;;;;;;8.15;1.50;;;;;;;;;;8212136;28;20803;-61
2022/01/28 14:24:17;;;;;;;6.53;1.30;;;;;;;;;;8214028;28;20184;-62
2022/01/28 14:32:24;;;;;;;7.05;1.70;;;;;;;;;;8212667;28;20039;-61
2022/01/28 14:36:25;;;;;;;7.00;1.58;;;;;;;;;;8213067;28;20026;-61
2022/01/28 14:40:25;;;;;;;3.42;1.52;;;;;;;;;;8206212;28;20034;-62
2022/01/28 14:44:25;;;;;;;5.73;1.90;;;;;;;;;;8209293;28;20383;-63
2022/01/28 14:48:28;;;;;;;6.80;1.60;;;;;;;;;;8212874;28;20332;-64
2022/01/28 14:52:30;;;;;;;8.40;1.83;;;;;;;;;;8211942;28;20714;-63
2022/01/28 14:56:30;;;;;;;4.45;1.80;;;;;;;;;;8213169;28;20416;-63
2022/01/28 15:00:30;;;;;;;4.97;1.60;;;;;;;;;;8211029;28;20058;-60
2022/01/28 15:04:31;;;;;;;8.55;1.90;;;;;;;;;;8212281;28;20432;-60
2022/01/28 15:08:32;;;;;;;5.30;2.00;;;;;;;;;;8212490;28;20341;-60
2022/01/28 15:12:33;;;;;;;3.22;1.70;;;;;;;;;;8207151;28;20044;-60
2022/01/28 15:16:34;;;;;;;10.30;2.30;;;;;;;;;;8211595;28;20221;-60
2022/01/28 15:20:34;;;;;;;6.28;2.42;;;;;;;;;;8210678;28;20062;-60
2022/01/28 15:24:34;;;;;;;10.83;3.00;;;;;;;;;;8209945;28;20034;-60
2022/01/28 15:28:48;;;;;;;9.45;2.92;;;;;;;;;;8207092;28;20502;-60
2022/01/28 15:37:11;;;;;;;10.80;3.17;;;;;;;;;;8212268;28;20068;-60
2022/01/28 15:41:12;;;;;;;9.18;2.85;;;;;;;;;;8212428;28;20023;-62
2022/01/28 15:45:14;;;;;;;5.57;2.10;;;;;;;;;;8209960;28;20395;-63
2022/01/28 15:49:14;;;;;;;10.38;2.60;;;;;;;;;;8212308;28;20065;-62
2022/01/28 15:53:14;;;;;;;6.63;2.72;;;;;;;;;;8215790;28;20034;-61
2022/01/28 15:57:14;;;;;;;6.30;2.85;;;;;;;;;;8216606;28;20471;-62
2022/01/28 16:01:15;;;;;;;7.60;3.03;;;;;;;;;;8215517;28;20031;-61
2022/01/28 16:05:15;;;;;;;9.73;3.08;;;;;;;;;;8216303;28;20113;-62
2022/01/28 16:09:16;;;;;;;11.48;3.22;;;;;;;;;;8214998;28;20565;-62
2022/01/28 16:13:27;;;;;;;11.82;3.42;;;;;;;;;;8215731;28;20556;-62
2022/01/28 16:17:37;;;;;;;7.35;3.05;;;;;;;;;;8215573;28;20624;-62
2022/01/28 16:21:37;;;;;;;8.95;3.30;;;;;;;;;;8215960;28;20738;-62
2022/01/28 16:25:37;;;;;;;11.55;3.88;;;;;;;;;;8214389;28;20521;-62
2022/01/28 16:29:41;;;;;;;9.85;4.25;;;;;;;;;;8213626;28;20297;-62
2022/01/28 16:33:41;;;;;;;7.57;3.60;;;;;;;;;;8216463;28;20047;-62
2022/01/28 16:37:41;;;;;;;7.28;3.22;;;;;;;;;;8213991;28;20035;-62
2022/01/28 16:41:43;;;;;;;6.90;2.92;;;;;;;;;;8213797;28;20084;-62
2022/01/28 16:45:44;;;;;;;10.05;3.72;;;;;;;;;;8214532;28;20042;-62
2022/01/28 16:49:46;;;;;;;13.77;4.90;;;;;;;;;;8213551;28;20439;-62
2022/01/28 16:53:46;;;;;;;6.60;3.47;;;;;;;;;;8214532;28;20291;-62
2022/01/28 16:57:48;;;;;;;11.52;4.82;;;;;;;;;;8214647;28;20023;-62
2022/01/28 17:01:48;;;;;;;8.93;3.45;;;;;;;;;;8214237;28;20451;-62
2022/01/28 17:05:49;;;;;;;8.88;3.60;;;;;;;;;;8214249;28;20031;-62
2022/01/28 17:09:51;;;;;;;14.93;4.05;;;;;;;;;;8215359;28;20383;-62
2022/01/28 17:13:52;;;;;;;10.60;3.60;;;;;;;;;;8212479;28;20650;-62
2022/01/28 17:17:53;;;;;;;14.48;3.53;;;;;;;;;;8214932;28;20034;-62
2022/01/28 17:21:53;;;;;;;10.57;3.58;;;;;;;;;;8212911;28;20485;-62
2022/01/28 17:25:53;;;;;;;8.93;4.47;;;;;;;;;;8213841;28;20043;-62
2022/01/28 17:29:53;;;;;;;6.47;3.17;;;;;;;;;;8213016;28;20488;-62
2022/01/28 17:33:53;;;;;;;10.50;3.22;;;;;;;;;;8214560;28;20042;-62
2022/01/28 17:37:54;;;;;;;9.15;3.83;;;;;;;;;;8212296;28;20026;-62
2022/01/28 17:41:54;;;;;;;8.20;4.03;;;;;;;;;;8213911;28;20026;-62
2022/01/28 17:45:55;;;;;;;10.55;4.43;;;;;;;;;;8212313;28;20077;-62
2022/01/28 17:49:55;;;;;;;13.95;4.53;;;;;;;;;;8213482;28;20026;-62
2022/01/28 17:53:55;;;;;;;9.57;4.45;;;;;;;;;;8212981;28;20137;-62
2022/01/28 17:57:56;;;;;;;7.38;4.45;;;;;;;;;;8212718;28;20550;-62
2022/01/28 18:01:56;;;;;;;12.20;5.00;;;;;;;;;;8212013;28;20471;-62
2022/01/28 18:05:59;;;;;;;11.95;4.78;;;;;;;;;;8213393;28;20808;-62
2022/01/28 18:09:59;;;;;;;14.45;5.00;;;;;;;;;;8212610;28;20689;-62
2022/01/28 18:14:00;;;;;;;8.18;4.70;;;;;;;;;;8213210;28;20348;-62
2022/01/28 18:18:02;;;;;;;9.50;4.85;;;;;;;;;;8212973;28;20298;-62
2022/01/28 18:22:03;;;;;;;7.50;4.53;;;;;;;;;;8211779;28;20034;-62
2022/01/28 18:26:03;;;;;;;12.43;5.78;;;;;;;;;;8215162;28;20018;-62
2022/01/28 18:30:06;;;;;;;9.82;5.40;;;;;;;;;;8211610;28;20419;-62
2022/01/28 18:34:06;;;;;;;11.77;5.60;;;;;;;;;;8213723;28;20239;-62
2022/01/28 18:38:06;;;;;;;10.70;5.90;;;;;;;;;;8212222;28;20160;-62
2022/01/28 18:42:09;;;;;;;13.98;5.95;;;;;;;;;;8211905;28;20504;-62
2022/01/28 18:46:11;;;;;;;11.98;6.03;;;;;;;;;;8210331;28;20157;-62
2022/01/28 18:50:11;;;;;;;9.52;5.60;;;;;;;;;;8213067;28;20474;-61
2022/01/28 18:54:11;;;;;;;10.70;5.40;;;;;;;;;;8212770;28;20030;-61
2022/01/28 18:58:11;;;;;;;10.05;5.63;;;;;;;;;;8213833;28;20026;-61
2022/01/28 19:02:16;;;;;;;13.15;5.93;;;;;;;;;;8211129;28;20126;-61
2022/01/28 19:06:16;;;;;;;11.35;6.13;;;;;;;;;;8211929;28;20069;-61
2022/01/28 19:10:18;;;;;;;12.63;6.40;;;;;;;;;;8212472;28;20276;-61
2022/01/28 19:14:18;;;;;;;13.77;7.18;;;;;;;;;;8211978;28;20087;-61
2022/01/28 19:18:18;;;;;;;14.00;7.03;;;;;;;;;;8213416;28;20035;-62
2022/01/28 19:22:19;;;;;;;14.07;6.82;;;;;;;;;;8212200;28;20102;-61
2022/01/28 19:26:19;;;;;;;14.30;7.50;;;;;;;;;;8213901;28;20423;-61
2022/01/28 19:30:22;;;;;;;15.32;8.55;;;;;;;;;;8217646;28;20057;-61
2022/01/28 19:34:23;;;;;;;20.25;9.75;;;;;;;;;;8219487;28;20026;-61
2022/01/28 19:38:23;;;;;;;13.40;7.88;;;;;;;;;;8217770;28;20923;-61
2022/01/28 19:42:23;;;;;;;21.85;9.55;;;;;;;;;;8218044;28;20034;-61
2022/01/28 19:46:26;;;;;;;19.35;9.43;;;;;;;;;;8218308;28;20467;-62
2022/01/28 19:50:28;;;;;;;16.42;9.73;;;;;;;;;;8217628;28;20053;-61
2022/01/28 19:54:29;;;;;;;19.52;10.93;;;;;;;;;;8218904;28;20030;-62
2022/01/28 19:58:29;;;;;;;21.70;11.77;;;;;;;;;;8215229;28;20041;-61
2022/01/28 20:02:30;;;;;;;21.10;11.68;;;;;;;;;;8218043;28;20359;-62
2022/01/28 20:06:30;;;;;;;18.10;10.52;;;;;;;;;;8219454;28;20298;-61
2022/01/28 20:10:30;;;;;;;20.63;12.00;;;;;;;;;;8216981;28;20562;-61
2022/01/28 20:14:30;;;;;;;26.48;12.80;;;;;;;;;;8217374;28;20285;-61
2022/01/28 20:18:31;;;;;;;26.27;12.73;;;;;;;;;;8218735;28;20069;-61
2022/01/28 20:22:31;;;;;;;21.60;11.48;;;;;;;;;;8215845;28;20022;-61
2022/01/28 20:26:31;;;;;;;18.58;11.02;;;;;;;;;;8219014;28;20038;-61
2022/01/28 20:30:32;;;;;;;17.13;10.90;;;;;;;;;;8215334;28;20042;-61
2022/01/28 20:34:33;;;;;;;20.83;12.05;;;;;;;;;;8217810;28;20301;-62
2022/01/28 20:38:33;;;;;;;22.75;11.57;;;;;;;;;;8215378;28;20154;-61
2022/01/28 20:42:34;;;;;;;24.20;11.90;;;;;;;;;;8215641;28;20121;-61
2022/01/28 20:46:34;;;;;;;26.88;12.60;;;;;;;;;;8217228;28;20070;-61
2022/01/28 20:50:34;;;;;;;24.40;11.05;;;;;;;;;;8217009;28;20561;-62
2022/01/28 20:54:35;;;;;;;23.35;12.20;;;;;;;;;;8215810;28;20026;-62
2022/01/28 20:58:35;;;;;;;21.95;12.73;;;;;;;;;;8213273;28;20022;-61
2022/01/28 21:02:36;;;;;;;26.83;12.60;;;;;;;;;;8212912;28;20335;-62
2022/01/28 21:06:36;;;;;;;20.55;12.02;;;;;;;;;;8214596;28;20364;-61
2022/01/28 21:10:36;;;;;;;23.48;13.68;;;;;;;;;;8212110;28;20309;-61
2022/01/28 21:14:37;;;;;;;21.90;11.40;;;;;;;;;;8214400;28;20306;-61
2022/01/28 21:18:38;;;;;;;24.33;12.90;;;;;;;;;;8208094;28;20269;-62
2022/01/28 21:22:39;;;;;;;21.33;11.32;;;;;;;;;;8212298;28;20026;-63
2022/01/28 21:26:39;;;;;;;22.05;11.52;;;;;;;;;;8215195;28;20030;-61
2022/01/28 21:30:40;;;;;;;18.48;11.77;;;;;;;;;;8213050;28;20031;-62
2022/01/28 21:34:40;;;;;;;26.10;12.90;;;;;;;;;;8214902;28;20509;-62
2022/01/28 21:38:40;;;;;;;22.05;11.73;;;;;;;;;;8210926;28;20029;-62
2022/01/28 21:42:41;;;;;;;21.00;11.23;;;;;;;;;;8214606;28;20506;-61
2022/01/28 21:46:41;;;;;;;21.67;11.05;;;;;;;;;;8214579;28;20040;-62
2022/01/28 21:50:42;;;;;;;21.50;11.07;;;;;;;;;;8211900;28;20030;-61
2022/01/28 21:54:42;;;;;;;19.20;10.55;;;;;;;;;;8213078;28;20125;-61
2022/01/28 21:58:42;;;;;;;22.10;11.38;;;;;;;;;;8212202;28;20074;-62
2022/01/28 22:02:42;;;;;;;18.80;9.93;;;;;;;;;;8213521;28;20042;-61
2022/01/28 22:06:42;;;;;;;20.35;11.10;;;;;;;;;;8213848;28;20513;-62
2022/01/28 22:10:43;;;;;;;21.40;10.63;;;;;;;;;;8204793;28;20502;-61
2022/01/28 22:14:43;;;;;;;23.10;11.07;;;;;;;;;;8211352;28;20354;-62
2022/01/28 22:18:43;;;;;;;26.13;11.95;;;;;;;;;;8212410;28;20041;-61
2022/01/28 22:22:43;;;;;;;22.45;11.55;;;;;;;;;;8212397;28;20030;-61
2022/01/28 22:26:44;;;;;;;21.80;10.70;;;;;;;;;;8214973;28;20137;-61
2022/01/28 22:30:44;;;;;;;22.25;10.68;;;;;;;;;;8210085;28;20277;-61
2022/01/28 22:34:44;;;;;;;28.23;14.25;;;;;;;;;;8214299;28;20026;-62
2022/01/28 22:38:44;;;;;;;25.83;11.75;;;;;;;;;;8211452;28;20023;-61
2022/01/28 22:42:45;;;;;;;26.20;12.77;;;;;;;;;;8212404;28;20038;-62
2022/01/28 22:46:45;;;;;;;29.95;13.38;;;;;;;;;;8211607;28;20512;-61
2022/01/28 22:50:46;;;;;;;24.02;11.98;;;;;;;;;;8211963;28;20377;-61
2022/01/28 22:54:46;;;;;;;24.45;11.82;;;;;;;;;;8209946;28;20041;-62
2022/01/28 22:58:46;;;;;;;20.92;11.32;;;;;;;;;;8212160;28;20431;-62
2022/01/28 23:02:46;;;;;;;23.27;11.90;;;;;;;;;;8205252;28;20164;-61
2022/01/28 23:06:49;;;;;;;23.38;13.02;;;;;;;;;;8209816;28;20448;-61
2022/01/28 23:10:49;;;;;;;17.55;10.52;;;;;;;;;;8210967;28;20864;-61
2022/01/28 23:14:49;;;;;;;22.38;11.27;;;;;;;;;;8210859;28;20046;-61
2022/01/28 23:18:49;;;;;;;22.05;10.05;;;;;;;;;;8210820;28;20058;-61
2022/01/28 23:22:50;;;;;;;21.58;10.95;;;;;;;;;;8211681;28;20030;-61
2022/01/28 23:26:57;;;;;;;22.45;10.98;;;;;;;;;;8211467;28;20036;-61
2022/01/28 23:30:57;;;;;;;26.58;12.43;;;;;;;;;;8210201;28;20624;-62
2022/01/28 23:34:57;;;;;;;22.53;11.43;;;;;;;;;;8211669;28;20952;-61
2022/01/28 23:38:58;;;;;;;20.27;11.30;;;;;;;;;;8210540;28;20632;-61
2022/01/28 23:42:58;;;;;;;25.35;12.02;;;;;;;;;;8211734;28;20455;-62
2022/01/28 23:46:58;;;;;;;21.20;10.93;;;;;;;;;;8211753;28;20138;-62
2022/01/28 23:50:59;;;;;;;24.23;12.63;;;;;;;;;;8209743;28;20027;-61
2022/01/28 23:54:59;;;;;;;19.23;10.00;;;;;;;;;;8210721;28;20121;-61
2022/01/28 23:58:59;;;;;;;16.90;9.80;;;;;;;;;;8209693;28;20223;-61
